createdAt,value
2023-05-21T00:00:21.686Z,57.44
2023-05-21T00:02:48.393Z,57.46
2023-05-21T00:05:17.072Z,57.56
2023-05-21T00:07:44.073Z,57.88
2023-05-21T00:10:10.874Z,57.55
2023-05-21T00:12:37.480Z,57.37
2023-05-21T00:15:04.418Z,57.37
2023-05-21T00:17:31.003Z,57.85
2023-05-21T00:19:57.599Z,57.79
2023-05-21T00:22:24.230Z,57.54
2023-05-21T00:24:50.837Z,57.94
2023-05-21T00:27:17.378Z,57.38
2023-05-21T00:29:44.421Z,57.36
2023-05-21T00:32:11.389Z,57.40
2023-05-21T00:34:38.375Z,57.33
2023-05-21T00:37:05.117Z,57.66
2023-05-21T00:39:31.656Z,58.03
2023-05-21T00:41:58.399Z,57.64
2023-05-21T00:44:25.536Z,57.71
2023-05-21T00:46:53.751Z,57.43
2023-05-21T00:49:22.516Z,57.50
2023-05-21T00:51:49.527Z,57.71
2023-05-21T00:54:16.153Z,57.00
2023-05-21T00:56:42.760Z,57.29
2023-05-21T00:59:09.317Z,57.45
2023-05-21T01:01:37.058Z,57.20
2023-05-21T01:04:04.148Z,57.59
2023-05-21T01:06:34.540Z,57.78
2023-05-21T01:09:03.903Z,57.51
2023-05-21T01:11:38.575Z,57.51
2023-05-21T01:14:05.361Z,57.51
2023-05-21T01:16:32.357Z,57.65
2023-05-21T01:18:59.728Z,57.19
2023-05-21T01:21:28.458Z,57.50
2023-05-21T01:23:55.018Z,57.54
2023-05-21T01:26:21.592Z,57.77
2023-05-21T01:28:48.204Z,57.51
2023-05-21T01:31:27.226Z,57.61
2023-05-21T01:33:53.827Z,57.33
2023-05-21T01:36:26.247Z,57.64
2023-05-21T01:39:01.590Z,57.50
2023-05-21T01:41:28.642Z,57.69
2023-05-21T01:43:55.180Z,57.95
2023-05-21T01:46:25.215Z,57.69
2023-05-21T01:48:51.801Z,57.77
2023-05-21T01:51:18.392Z,57.79
2023-05-21T01:53:44.953Z,57.59
2023-05-21T01:56:11.534Z,57.58
2023-05-21T01:58:38.141Z,57.53
2023-05-21T02:01:05.133Z,57.42
2023-05-21T02:03:31.897Z,57.52
2023-05-21T02:05:58.657Z,57.50
2023-05-21T02:08:25.582Z,57.61
2023-05-21T02:10:52.205Z,57.49
2023-05-21T02:13:25.022Z,57.42
2023-05-21T02:15:54.926Z,57.54
2023-05-21T02:18:21.966Z,57.66
2023-05-21T02:20:48.526Z,57.82
2023-05-21T02:23:15.079Z,57.89
2023-05-21T02:25:41.655Z,57.63
2023-05-21T02:28:08.229Z,57.33
2023-05-21T02:30:35.323Z,58.00
2023-05-21T02:33:02.972Z,57.66
2023-05-21T02:35:29.669Z,57.81
2023-05-21T02:37:59.216Z,57.95
2023-05-21T02:40:26.158Z,57.44
2023-05-21T02:42:52.754Z,57.57
2023-05-21T02:45:19.312Z,57.15
2023-05-21T02:47:45.888Z,57.62
2023-05-21T02:50:13.675Z,57.56
2023-05-21T02:52:41.579Z,58.00
2023-05-21T02:55:08.582Z,57.50
2023-05-21T02:57:35.152Z,57.96
2023-05-21T03:00:01.698Z,57.44
2023-05-21T03:02:28.350Z,57.69
2023-05-21T03:04:55.613Z,57.78
2023-05-21T03:07:22.455Z,57.49
2023-05-21T03:09:49.070Z,57.61
2023-05-21T03:12:15.702Z,57.75
2023-05-21T03:14:44.099Z,57.26
2023-05-21T03:17:13.981Z,57.53
2023-05-21T03:19:41.752Z,57.67
2023-05-21T03:22:08.353Z,57.42
2023-05-21T03:24:35.338Z,57.32
2023-05-21T03:27:01.907Z,57.52
2023-05-21T03:29:28.600Z,57.49
2023-05-21T03:31:55.316Z,57.61
2023-05-21T03:34:22.010Z,57.62
2023-05-21T03:36:48.552Z,57.46
2023-05-21T03:39:15.490Z,57.60
2023-05-21T03:41:42.178Z,57.74
2023-05-21T03:44:08.813Z,57.56
2023-05-21T03:46:35.531Z,57.87
2023-05-21T03:49:02.422Z,57.74
2023-05-21T03:51:30.391Z,57.61
2023-05-21T03:53:59.083Z,57.74
2023-05-21T03:56:26.305Z,58.04
2023-05-21T03:58:53.044Z,57.59
2023-05-21T04:01:19.676Z,57.68
2023-05-21T04:03:46.459Z,57.73
2023-05-21T04:06:13.405Z,57.66
2023-05-21T04:08:40.004Z,57.30
2023-05-21T04:11:06.596Z,57.62
2023-05-21T04:13:33.153Z,57.48
2023-05-21T04:15:59.855Z,57.29
2023-05-21T04:18:26.849Z,57.92
2023-05-21T04:20:53.870Z,57.46
2023-05-21T04:23:23.642Z,57.44
2023-05-21T04:25:51.021Z,57.48
2023-05-21T04:28:21.186Z,57.73
2023-05-21T04:30:47.918Z,57.59
2023-05-21T04:33:18.122Z,57.86
2023-05-21T04:35:46.284Z,57.62
2023-05-21T04:38:12.870Z,57.83
2023-05-21T04:40:40.635Z,57.64
2023-05-21T04:43:08.136Z,57.67
2023-05-21T04:45:35.026Z,57.55
2023-05-21T04:48:02.974Z,57.84
2023-05-21T04:50:30.903Z,57.59
2023-05-21T04:52:58.861Z,57.82
2023-05-21T04:55:25.961Z,57.45
2023-05-21T04:57:53.027Z,57.54
2023-05-21T05:00:20.000Z,57.61
2023-05-21T05:02:46.727Z,57.67
2023-05-21T05:05:13.361Z,57.44
2023-05-21T05:07:39.957Z,57.86
2023-05-21T05:10:07.300Z,57.70
2023-05-21T05:12:33.863Z,57.74
2023-05-21T05:15:00.640Z,57.43
2023-05-21T05:17:27.566Z,57.35
2023-05-21T05:19:54.262Z,57.64
2023-05-21T05:22:20.951Z,57.40
2023-05-21T05:24:47.513Z,57.76
2023-05-21T05:27:14.128Z,57.53
2023-05-21T05:29:40.733Z,57.75
2023-05-21T05:32:07.867Z,57.38
2023-05-21T05:34:34.434Z,57.54
2023-05-21T05:37:03.025Z,57.40
2023-05-21T05:39:29.643Z,57.99
2023-05-21T05:41:56.315Z,57.64
2023-05-21T05:44:22.934Z,57.96
2023-05-21T05:46:49.514Z,57.88
2023-05-21T05:49:16.101Z,57.85
2023-05-21T05:51:42.696Z,57.59
2023-05-21T05:54:09.242Z,57.51
2023-05-21T05:56:35.816Z,57.33
2023-05-21T05:59:02.371Z,57.59
2023-05-21T06:01:28.949Z,57.38
2023-05-21T06:03:57.261Z,57.56
2023-05-21T06:06:24.018Z,57.36
2023-05-21T06:08:50.629Z,57.58
2023-05-21T06:11:18.828Z,57.56
2023-05-21T06:13:45.763Z,57.57
2023-05-21T06:16:12.768Z,57.52
2023-05-21T06:18:39.395Z,58.04
2023-05-21T06:21:06.111Z,57.65
2023-05-21T06:23:32.816Z,57.22
2023-05-21T06:25:59.420Z,57.97
2023-05-21T06:28:26.195Z,57.67
2023-05-21T06:30:52.827Z,58.08
2023-05-21T06:33:19.471Z,58.10
2023-05-21T06:35:46.109Z,57.92
2023-05-21T06:38:12.730Z,57.84
2023-05-21T06:40:39.337Z,57.93
2023-05-21T06:43:06.122Z,58.03
2023-05-21T06:45:32.695Z,58.34
2023-05-21T06:47:59.299Z,58.42
2023-05-21T06:50:25.892Z,58.38
2023-05-21T06:52:52.410Z,57.98
2023-05-21T06:55:19.056Z,58.27
2023-05-21T06:57:45.602Z,58.46
2023-05-21T07:00:12.598Z,58.38
2023-05-21T07:02:39.281Z,57.94
2023-05-21T07:05:06.263Z,58.13
2023-05-21T07:07:34.859Z,57.82
2023-05-21T07:10:01.510Z,57.70
2023-05-21T07:12:28.062Z,58.09
2023-05-21T07:14:54.634Z,58.09
2023-05-21T07:17:21.291Z,58.08
2023-05-21T07:19:47.839Z,58.18
2023-05-21T07:22:14.764Z,58.46
2023-05-21T07:24:41.330Z,58.10
2023-05-21T07:27:17.716Z,58.58
2023-05-21T07:29:51.045Z,58.22
2023-05-21T07:32:17.608Z,58.03
2023-05-21T07:34:44.169Z,58.56
2023-05-21T07:37:10.792Z,58.74
2023-05-21T07:39:37.838Z,58.60
2023-05-21T07:42:04.513Z,58.68
2023-05-21T07:44:31.963Z,58.83
2023-05-21T07:46:58.573Z,58.31
2023-05-21T07:49:25.175Z,59.40
2023-05-21T07:51:51.798Z,59.44
2023-05-21T07:54:19.641Z,58.87
2023-05-21T07:56:46.231Z,59.31
2023-05-21T07:59:14.448Z,59.52
2023-05-21T08:01:41.113Z,59.28
2023-05-21T08:04:08.072Z,59.17
2023-05-21T08:06:34.765Z,58.98
2023-05-21T08:09:04.945Z,59.18
2023-05-21T08:11:31.524Z,58.27
2023-05-21T08:13:58.078Z,58.23
2023-05-21T08:16:24.654Z,58.27
2023-05-21T08:18:51.564Z,58.37
2023-05-21T08:21:18.209Z,58.51
2023-05-21T08:23:44.813Z,58.18
2023-05-21T08:26:11.861Z,58.33
2023-05-21T08:28:38.689Z,58.04
2023-05-21T08:31:05.393Z,58.23
2023-05-21T08:33:31.985Z,58.19
2023-05-21T08:35:58.893Z,58.44
2023-05-21T08:38:26.096Z,58.19
2023-05-21T08:40:53.190Z,57.72
2023-05-21T08:43:19.732Z,57.74
2023-05-21T08:45:49.852Z,58.17
2023-05-21T08:48:17.012Z,57.94
2023-05-21T08:50:43.619Z,58.19
2023-05-21T08:53:19.840Z,58.17
2023-05-21T08:55:54.137Z,57.91
2023-05-21T08:58:20.796Z,58.04
2023-05-21T09:00:47.399Z,58.17
2023-05-21T09:03:14.977Z,57.92
2023-05-21T09:05:42.419Z,58.03
2023-05-21T09:08:27.852Z,57.95
2023-05-21T09:10:54.417Z,57.76
2023-05-21T09:13:21.090Z,58.05
2023-05-21T09:15:48.054Z,58.09
2023-05-21T09:18:14.741Z,58.11
2023-05-21T09:20:41.410Z,58.29
2023-05-21T09:23:12.506Z,58.06
2023-05-21T09:25:39.495Z,57.96
2023-05-21T09:28:12.150Z,57.96
2023-05-21T09:30:44.645Z,58.04
2023-05-21T09:33:11.980Z,58.39
2023-05-21T09:35:45.330Z,57.97
2023-05-21T09:38:11.863Z,58.67
2023-05-21T09:40:39.359Z,58.04
2023-05-21T09:43:05.950Z,57.90
2023-05-21T09:45:32.515Z,58.31
2023-05-21T09:47:59.082Z,58.18
2023-05-21T09:50:29.490Z,57.84
2023-05-21T09:52:56.137Z,58.12
2023-05-21T09:55:23.212Z,57.83
2023-05-21T09:57:50.861Z,57.93
2023-05-21T10:00:18.487Z,57.79
2023-05-21T10:02:47.036Z,57.97
2023-05-21T10:05:17.110Z,57.83
2023-05-21T10:07:49.227Z,57.94
2023-05-21T10:10:15.854Z,57.57
2023-05-21T10:12:46.711Z,58.03
2023-05-21T10:15:17.108Z,57.82
2023-05-21T10:17:44.560Z,57.96
2023-05-21T10:20:11.716Z,58.00
2023-05-21T10:22:38.719Z,57.90
2023-05-21T10:25:06.964Z,57.90
2023-05-21T10:27:33.608Z,57.98
2023-05-21T10:30:00.506Z,57.90
2023-05-21T10:32:27.363Z,58.02
2023-05-21T10:34:54.288Z,57.83
2023-05-21T10:37:23.139Z,57.73
2023-05-21T10:39:50.639Z,57.97
2023-05-21T10:42:32.360Z,57.99
2023-05-21T10:45:01.046Z,57.88
2023-05-21T10:47:54.333Z,57.87
2023-05-21T10:50:30.172Z,57.64
2023-05-21T10:53:10.566Z,57.86
2023-05-21T10:55:40.154Z,57.78
2023-05-21T10:58:19.753Z,57.92
2023-05-21T11:00:46.424Z,57.93
2023-05-21T11:03:13.196Z,57.94
2023-05-21T11:05:52.928Z,57.84
2023-05-21T11:08:35.619Z,58.02
2023-05-21T11:11:02.791Z,57.82
2023-05-21T11:13:44.401Z,57.92
2023-05-21T11:16:14.683Z,57.92
2023-05-21T11:18:41.183Z,57.89
2023-05-21T11:21:15.362Z,58.06
2023-05-21T11:23:51.287Z,57.88
2023-05-21T11:26:18.725Z,58.24
2023-05-21T11:28:45.368Z,57.87
2023-05-21T11:31:38.047Z,57.81
2023-05-21T11:34:21.796Z,57.69
2023-05-21T11:36:48.824Z,57.66
2023-05-21T11:39:17.940Z,57.85
2023-05-21T11:41:50.767Z,57.61
2023-05-21T11:44:17.351Z,57.94
2023-05-21T11:46:43.960Z,58.14
2023-05-21T11:49:10.610Z,57.59
2023-05-21T11:51:37.191Z,57.79
2023-05-21T11:54:03.952Z,57.76
2023-05-21T11:56:31.887Z,56.11
2023-05-21T11:58:58.487Z,55.83
2023-05-21T12:01:25.094Z,56.02
2023-05-21T12:03:51.704Z,56.45
2023-05-21T12:06:18.523Z,56.80
2023-05-21T12:08:45.534Z,57.01
2023-05-21T12:11:12.105Z,57.32
2023-05-21T12:13:38.666Z,57.13
2023-05-21T12:16:07.033Z,57.07
2023-05-21T12:18:33.953Z,57.41
2023-05-21T12:21:00.560Z,56.93
2023-05-21T12:23:27.177Z,57.56
2023-05-21T12:25:53.920Z,58.02
2023-05-21T12:28:24.782Z,57.50
2023-05-21T12:30:51.493Z,57.03
2023-05-21T12:33:18.779Z,57.51
2023-05-21T12:35:48.874Z,57.48
2023-05-21T12:38:16.436Z,57.58
2023-05-21T12:40:44.544Z,57.51
2023-05-21T12:43:11.128Z,57.15
2023-05-21T12:45:39.471Z,57.65
2023-05-21T12:48:06.472Z,57.63
2023-05-21T12:50:33.129Z,57.83
2023-05-21T12:52:59.747Z,57.71
2023-05-21T12:55:26.471Z,57.60
2023-05-21T12:58:07.907Z,57.77
2023-05-21T13:00:34.983Z,57.65
2023-05-21T13:03:04.353Z,57.63
2023-05-21T13:05:31.276Z,57.83
2023-05-21T13:07:57.890Z,58.25
2023-05-21T13:10:24.480Z,57.45
2023-05-21T13:12:51.026Z,57.52
2023-05-21T13:15:17.823Z,57.47
2023-05-21T13:17:44.431Z,57.76
2023-05-21T13:20:15.526Z,57.74
2023-05-21T13:22:49.286Z,57.66
2023-05-21T13:25:21.161Z,57.76
2023-05-21T13:27:48.714Z,57.94
2023-05-21T13:30:15.467Z,57.94
2023-05-21T13:32:42.302Z,57.77
2023-05-21T13:35:10.145Z,57.65
2023-05-21T13:37:36.781Z,58.06
2023-05-21T13:40:07.476Z,57.49
2023-05-21T13:42:34.667Z,57.80
2023-05-21T13:45:01.271Z,57.55
2023-05-21T13:47:27.941Z,56.96
2023-05-21T13:49:54.534Z,58.05
2023-05-21T13:52:21.700Z,57.80
2023-05-21T13:54:48.266Z,57.76
2023-05-21T13:57:15.253Z,57.79
2023-05-21T13:59:41.855Z,57.53
2023-05-21T14:02:09.004Z,57.69
2023-05-21T14:04:37.165Z,57.82
2023-05-21T14:07:05.837Z,57.76
2023-05-21T14:09:32.411Z,57.92
2023-05-21T14:11:58.954Z,57.92
2023-05-21T14:14:25.739Z,57.62
2023-05-21T14:16:52.372Z,57.86
2023-05-21T14:19:19.043Z,57.69
2023-05-21T14:21:45.767Z,57.82
2023-05-21T14:24:12.338Z,58.13
2023-05-21T14:26:40.817Z,57.84
2023-05-21T14:29:07.548Z,57.74
2023-05-21T14:31:34.137Z,57.96
2023-05-21T14:34:01.763Z,57.72
2023-05-21T14:36:28.560Z,57.91
2023-05-21T14:38:55.086Z,57.78
2023-05-21T14:41:24.582Z,57.82
2023-05-21T14:43:51.151Z,57.81
2023-05-21T14:46:17.778Z,57.84
2023-05-21T14:48:46.661Z,57.69
2023-05-21T14:51:13.760Z,57.87
2023-05-21T14:53:40.716Z,57.85
2023-05-21T14:56:07.542Z,57.91
2023-05-21T14:58:34.138Z,57.35
2023-05-21T15:01:01.961Z,57.96
2023-05-21T15:03:28.661Z,58.04
2023-05-21T15:05:55.267Z,57.90
2023-05-21T15:08:22.668Z,58.06
2023-05-21T15:10:49.274Z,57.97
2023-05-21T15:13:15.844Z,58.25
2023-05-21T15:15:42.484Z,57.86
2023-05-21T15:18:09.198Z,58.27
2023-05-21T15:20:35.828Z,57.79
2023-05-21T15:25:32.265Z,57.77
2023-05-21T15:27:58.812Z,58.05
2023-05-21T15:30:27.310Z,57.64
2023-05-21T15:32:54.074Z,57.95
2023-05-21T15:35:20.784Z,57.95
2023-05-21T15:37:47.553Z,57.70
2023-05-21T15:40:14.129Z,58.15
2023-05-21T15:42:40.766Z,57.98
2023-05-21T15:45:07.825Z,57.80
2023-05-21T15:47:34.580Z,58.06
2023-05-21T15:50:01.229Z,58.00
2023-05-21T15:52:27.802Z,57.90
2023-05-21T15:54:54.814Z,57.99
2023-05-21T15:57:21.518Z,57.82
2023-05-21T15:59:48.245Z,57.54
2023-05-21T16:02:14.785Z,58.10
2023-05-21T16:04:41.414Z,57.63
2023-05-21T16:07:07.972Z,57.82
2023-05-21T16:09:35.408Z,57.88
2023-05-21T16:12:02.017Z,57.73
2023-05-21T16:14:29.392Z,57.60
2023-05-21T16:16:56.380Z,58.02
2023-05-21T16:19:23.085Z,58.29
2023-05-21T16:21:49.872Z,58.01
2023-05-21T16:24:16.461Z,57.68
2023-05-21T16:26:43.386Z,58.01
2023-05-21T16:29:09.966Z,57.94
2023-05-21T16:31:37.789Z,57.88
2023-05-21T16:34:04.512Z,58.04
2023-05-21T16:36:31.154Z,57.63
2023-05-21T16:38:57.689Z,57.63
2023-05-21T16:41:24.248Z,57.95
2023-05-21T16:43:54.209Z,57.47
2023-05-21T16:46:21.186Z,57.98
2023-05-21T16:48:47.778Z,57.62
2023-05-21T16:51:14.307Z,57.47
2023-05-21T16:53:40.925Z,57.64
2023-05-21T16:56:07.547Z,57.92
2023-05-21T16:58:35.259Z,57.83
2023-05-21T17:01:01.859Z,57.81
2023-05-21T17:03:28.874Z,58.17
2023-05-21T17:05:55.647Z,58.22
2023-05-21T17:08:22.209Z,57.72
2023-05-21T17:10:48.793Z,57.83
2023-05-21T17:13:22.270Z,57.87
2023-05-21T17:15:50.791Z,57.96
2023-05-21T17:18:17.532Z,57.77
2023-05-21T17:20:44.185Z,57.81
2023-05-21T17:23:11.772Z,57.92
2023-05-21T17:25:39.061Z,57.97
2023-05-21T17:28:06.307Z,57.89
2023-05-21T17:30:33.311Z,57.74
2023-05-21T17:33:01.890Z,57.79
2023-05-21T17:35:28.567Z,57.94
2023-05-21T17:37:55.270Z,57.57
2023-05-21T17:40:24.313Z,57.69
2023-05-21T17:42:52.004Z,57.79
2023-05-21T17:45:18.749Z,57.90
2023-05-21T17:47:45.350Z,57.61
2023-05-21T17:50:12.000Z,57.69
2023-05-21T17:52:38.547Z,57.84
2023-05-21T17:55:05.734Z,57.88
2023-05-21T17:57:32.290Z,58.17
2023-05-21T17:59:58.916Z,57.54
2023-05-21T18:02:27.323Z,58.16
2023-05-21T18:04:54.130Z,58.06
2023-05-21T18:07:22.188Z,57.96
2023-05-21T18:09:48.763Z,57.51
2023-05-21T18:12:15.643Z,58.03
2023-05-21T18:14:42.182Z,57.95
2023-05-21T18:17:08.819Z,57.93
2023-05-21T18:19:35.413Z,58.30
2023-05-21T18:22:01.929Z,58.69
2023-05-21T18:24:28.577Z,58.14
2023-05-21T18:26:56.257Z,58.30
2023-05-21T18:29:22.820Z,58.22
2023-05-21T18:31:49.409Z,57.79
2023-05-21T18:34:17.407Z,58.09
2023-05-21T18:36:44.044Z,58.27
2023-05-21T18:39:10.610Z,58.22
2023-05-21T18:41:38.386Z,58.26
2023-05-21T18:44:06.092Z,58.19
2023-05-21T18:46:32.774Z,58.70
2023-05-21T18:48:59.752Z,58.24
2023-05-21T18:51:26.495Z,57.86
2023-05-21T18:53:53.122Z,58.00
2023-05-21T18:56:19.717Z,58.20
2023-05-21T18:58:47.583Z,57.97
2023-05-21T19:01:14.332Z,57.97
2023-05-21T19:03:41.030Z,57.93
2023-05-21T19:06:08.363Z,58.42
2023-05-21T19:08:34.964Z,58.41
2023-05-21T19:11:01.591Z,58.20
2023-05-21T19:13:28.174Z,57.65
2023-05-21T19:15:54.918Z,58.24
2023-05-21T19:18:21.536Z,58.22
2023-05-21T19:20:48.151Z,58.47
2023-05-21T19:23:15.190Z,58.14
2023-05-21T19:25:41.753Z,58.42
2023-05-21T19:28:08.344Z,58.05
2023-05-21T19:30:36.516Z,58.15
2023-05-21T19:33:03.467Z,58.38
2023-05-21T19:35:30.355Z,58.26
2023-05-21T19:38:00.184Z,58.14
2023-05-21T19:40:28.389Z,57.90
2023-05-21T19:42:54.959Z,58.70
2023-05-21T19:45:22.280Z,58.33
2023-05-21T19:47:48.910Z,58.54
2023-05-21T19:50:15.553Z,58.49
2023-05-21T19:52:42.257Z,58.41
2023-05-21T19:55:10.013Z,58.29
2023-05-21T19:57:37.163Z,58.55
2023-05-21T20:00:05.487Z,58.29
2023-05-21T20:02:34.515Z,58.30
2023-05-21T20:05:01.253Z,58.17
2023-05-21T20:07:27.887Z,58.47
2023-05-21T20:09:54.529Z,58.24
2023-05-21T20:12:21.140Z,58.75
2023-05-21T20:14:47.745Z,58.24
2023-05-21T20:17:14.779Z,58.30
2023-05-21T20:19:41.398Z,58.54
2023-05-21T20:22:07.999Z,58.46
2023-05-21T20:24:34.623Z,58.22
2023-05-21T20:27:01.656Z,59.07
2023-05-21T20:29:28.892Z,58.31
2023-05-21T20:31:55.472Z,58.38
2023-05-21T20:34:22.185Z,58.35
2023-05-21T20:36:48.811Z,58.36
2023-05-21T20:39:15.574Z,58.42
2023-05-21T20:41:44.767Z,58.28
2023-05-21T20:44:11.883Z,58.63
2023-05-21T20:46:41.183Z,58.67
2023-05-21T20:49:07.816Z,58.18
2023-05-21T20:51:35.857Z,58.27
2023-05-21T20:54:02.476Z,58.36
2023-05-21T20:56:41.630Z,58.20
2023-05-21T20:59:10.906Z,58.09
2023-05-21T21:01:38.450Z,58.47
2023-05-21T21:04:05.300Z,58.38
2023-05-21T21:06:32.126Z,58.35
2023-05-21T21:08:58.904Z,58.29
2023-05-21T21:11:26.659Z,58.79
2023-05-21T21:13:53.354Z,58.56
2023-05-21T21:16:20.040Z,58.42
2023-05-21T21:18:47.141Z,59.00
2023-05-21T21:21:13.842Z,58.55
2023-05-21T21:23:40.516Z,58.10
2023-05-21T21:26:07.194Z,58.84
2023-05-21T21:28:33.962Z,58.50
2023-05-21T21:31:00.685Z,58.49
2023-05-21T21:33:28.337Z,58.42
2023-05-21T21:35:55.068Z,58.81
2023-05-21T21:38:21.739Z,58.69
2023-05-21T21:40:48.297Z,58.37
2023-05-21T21:43:14.931Z,58.62
2023-05-21T21:45:41.565Z,58.40
2023-05-21T21:48:08.189Z,58.65
2023-05-21T21:50:34.845Z,58.74
2023-05-21T21:53:03.678Z,58.57
2023-05-21T21:55:30.362Z,58.22
2023-05-21T21:57:56.956Z,58.20
2023-05-21T22:00:26.619Z,58.72
2023-05-21T22:02:53.941Z,58.82
2023-05-21T22:05:20.951Z,58.45
2023-05-21T22:07:47.710Z,58.64
2023-05-21T22:10:15.148Z,58.65
2023-05-21T22:12:42.109Z,58.48
2023-05-21T22:15:11.037Z,58.51
2023-05-21T22:17:38.288Z,58.84
2023-05-21T22:20:05.950Z,58.82
2023-05-21T22:22:32.507Z,58.87
2023-05-21T22:24:59.076Z,58.97
2023-05-21T22:27:25.654Z,58.69
2023-05-21T22:29:52.247Z,58.75
2023-05-21T22:32:18.889Z,58.76
2023-05-21T22:34:45.619Z,58.55
2023-05-21T22:37:12.520Z,58.44
2023-05-21T22:39:39.164Z,58.66
2023-05-21T22:42:06.067Z,58.60
2023-05-21T22:44:32.701Z,58.75
2023-05-21T22:47:00.265Z,58.65
2023-05-21T22:49:27.123Z,58.81
2023-05-21T22:51:54.375Z,58.50
2023-05-21T22:54:21.235Z,58.65
2023-05-21T22:56:49.262Z,58.96
2023-05-21T22:59:15.875Z,58.86
2023-05-21T23:01:42.534Z,58.65
2023-05-21T23:04:09.176Z,58.82
2023-05-21T23:06:35.795Z,58.57
2023-05-21T23:09:02.336Z,58.84
2023-05-21T23:11:28.906Z,58.65
2023-05-21T23:13:55.433Z,58.94
2023-05-21T23:16:22.695Z,58.78
2023-05-21T23:18:50.027Z,58.72
2023-05-21T23:21:17.270Z,58.81
2023-05-21T23:23:43.812Z,58.56
2023-05-21T23:26:10.359Z,58.78
2023-05-21T23:28:37.204Z,58.83
2023-05-21T23:31:03.801Z,58.43
2023-05-21T23:33:30.547Z,58.70
2023-05-21T23:35:57.174Z,58.77
2023-05-21T23:38:24.305Z,58.91
2023-05-21T23:40:51.129Z,58.80
2023-05-21T23:43:17.774Z,58.93
2023-05-21T23:45:44.552Z,59.08
2023-05-21T23:48:11.906Z,58.17
2023-05-21T23:50:38.627Z,58.95
2023-05-21T23:53:05.355Z,58.89
2023-05-21T23:55:31.897Z,58.99
2023-05-21T23:57:58.425Z,58.80
